createdAt,value
2019-04-30T05:22:49.455Z,32.80
2019-04-30T05:25:19.369Z,23.77
2019-04-30T05:27:49.438Z,16.80
2019-04-30T05:30:19.802Z,19.13
2019-04-30T05:32:50.870Z,9.97
2019-04-30T05:35:20.803Z,22.70
2019-04-30T05:37:50.602Z,30.97
2019-04-30T05:40:20.383Z,17.67
2019-04-30T05:42:50.261Z,21.57
2019-04-30T05:45:20.134Z,29.27
2019-04-30T05:47:50.674Z,22.20
2019-04-30T05:52:49.905Z,33.80
2019-04-30T05:55:19.966Z,30.70
2019-04-30T05:57:55.987Z,29.77
2019-04-30T06:00:21.558Z,32.20
2019-04-30T06:02:51.453Z,24.50
2019-04-30T06:05:21.262Z,23.20
2019-04-30T06:07:51.964Z,26.30
2019-04-30T06:10:44.033Z,32.00
2019-04-30T06:13:19.013Z,24.55
2019-04-30T06:16:01.419Z,25.35
2019-04-30T06:26:08.982Z,23.20
2019-04-30T06:40:59.238Z,29.90
2019-04-30T07:36:45.205Z,6.90
2019-04-30T07:39:01.328Z,7.20
2019-04-30T09:14:12.916Z,7.40
2019-04-30T09:19:11.602Z,7.15
2019-04-30T09:24:10.255Z,19.70
2019-04-30T09:26:40.260Z,5.20
2019-04-30T09:29:13.848Z,24.00
2019-04-30T09:31:43.633Z,6.50
2019-04-30T09:34:17.115Z,6.43
2019-04-30T09:36:44.995Z,6.92
2019-04-30T09:39:14.800Z,6.43
2019-04-30T09:41:45.379Z,7.67
2019-04-30T09:44:15.174Z,7.75
2019-04-30T09:46:45.114Z,17.40
2019-04-30T09:49:16.832Z,11.93
2019-04-30T09:51:48.721Z,8.83
2019-04-30T09:54:19.878Z,5.97
2019-04-30T09:56:52.602Z,7.70
2019-04-30T09:59:21.623Z,11.30
2019-04-30T10:01:51.477Z,20.45
2019-04-30T10:04:22.554Z,5.80
2019-04-30T10:06:52.963Z,9.20
2019-04-30T10:09:22.934Z,7.67
2019-04-30T10:12:01.708Z,14.67
2019-04-30T10:14:31.570Z,9.17
2019-04-30T10:17:35.910Z,15.33
2019-04-30T10:20:08.285Z,19.37
2019-04-30T10:22:40.056Z,19.17
2019-04-30T10:25:10.562Z,22.17
2019-04-30T10:27:40.463Z,16.73
2019-04-30T10:30:13.575Z,29.03
2019-04-30T10:32:43.507Z,33.17
2019-04-30T10:42:40.949Z,20.00
2019-04-30T10:45:10.933Z,30.50
2019-04-30T10:47:40.943Z,25.90
2019-04-30T10:50:10.747Z,27.20
2019-04-30T11:05:11.238Z,38.95
2019-04-30T11:40:04.141Z,28.50
2019-04-30T11:47:35.383Z,33.80
2019-04-30T12:23:27.999Z,30.70
2019-04-30T12:26:01.046Z,27.75
2019-04-30T12:28:30.183Z,34.40
2019-04-30T12:33:30.437Z,44.10
2019-04-30T22:59:54.331Z,43.70
2019-04-30T23:02:39.501Z,36.50
2019-04-30T23:10:19.608Z,41.00
2019-04-30T23:12:49.379Z,41.43
2019-04-30T23:15:21.175Z,39.00
2019-04-30T23:17:51.360Z,39.50
2019-04-30T23:20:23.475Z,40.85
2019-04-30T23:22:53.311Z,36.50
